KLVS Airport (Las Vegas Muni) Information

FAA: LVS - ICAO: KLVS

KLVS Airport Location

State New Mexico
County San Miguel
City Las Vegas
KLVS Airport is 5 miles northeast of Las Vegas, NM.
Latitude 35-39-15.2000N
Longitude 105-08-32.6000W
Elevation 6,877ft

KLVS Airport METARs

METAR KLVS 181353Z AUTO 29004KT 10SM CLR M02/M25 A2990 RMK AO2 SLP102 T10221250 $
Altimeter 29.90"
Temperature -2.2°C (28.0°F)
Wind 290° at 4KT
Clouds Skies are clear.
Visibility 10.0mi
Time observed: 2022-01-18T13:53:00Z

KLVS Airport Details

Status Operational
Activation December 1946
Ownership Public
Usage Public
Chart ALBUQUERQUE
ATC on-site No
Beacon schedule sunset-sunrise
Beacon color clear green

KLVS Airport Contacts

Owner CITY OF LAS VEGAS
Owner address 1700 NORTH GRAND, LAS VEGAS, NM 87701
Owner phone 505-454-1401
Manager STEVE MORSE
Manager address P.O. BOX 3068, OCALA, FL 34478-3068
Manager phone 352-505-8078

KLVS Airport (Las Vegas Muni) Radio Frequencies

KLVS (Airport) Radio Frequencies

UNICOM 122.8
Common traffic advisory frequency (CTAF) 122.8